sensor_id;sensor_type;location;lat;lon;timestamp;pressure;altitude;pressure_sealevel;temperature;humidity
54876;BME280;40764;48.472;8.166;2022-11-10T00:03:10;98622.22;;;11.30;100.00
54876;BME280;40764;48.472;8.166;2022-11-10T00:09:10;98623.88;;;11.26;100.00
54876;BME280;40764;48.472;8.166;2022-11-10T00:15:10;98635.69;;;11.21;100.00
54876;BME280;40764;48.472;8.166;2022-11-10T00:21:29;98637.56;;;11.26;100.00
54876;BME280;40764;48.472;8.166;2022-11-10T00:27:31;98636.50;;;11.22;100.00
54876;BME280;40764;48.472;8.166;2022-11-10T00:33:33;98643.00;;;11.31;100.00
54876;BME280;40764;48.472;8.166;2022-11-10T00:39:34;98650.50;;;11.20;100.00
54876;BME280;40764;48.472;8.166;2022-11-10T00:45:34;98659.97;;;11.33;100.00
54876;BME280;40764;48.472;8.166;2022-11-10T00:51:34;98669.69;;;11.15;100.00
54876;BME280;40764;48.472;8.166;2022-11-10T00:57:35;98667.19;;;11.18;100.00
54876;BME280;40764;48.472;8.166;2022-11-10T01:03:35;98686.63;;;11.17;100.00
54876;BME280;40764;48.472;8.166;2022-11-10T01:09:35;98696.53;;;11.13;100.00
54876;BME280;40764;48.472;8.166;2022-11-10T01:15:40;98696.47;;;11.18;100.00
54876;BME280;40764;48.472;8.166;2022-11-10T01:21:40;98711.25;;;11.17;100.00
54876;BME280;40764;48.472;8.166;2022-11-10T01:27:41;98715.25;;;10.96;100.00
54876;BME280;40764;48.472;8.166;2022-11-10T01:33:41;98721.81;;;10.95;100.00
54876;BME280;40764;48.472;8.166;2022-11-10T01:39:41;98715.78;;;10.98;100.00
54876;BME280;40764;48.472;8.166;2022-11-10T01:45:51;98723.75;;;10.94;100.00
54876;BME280;40764;48.472;8.166;2022-11-10T01:51:56;98728.34;;;11.04;100.00
54876;BME280;40764;48.472;8.166;2022-11-10T01:57:57;98739.53;;;11.07;100.00
54876;BME280;40764;48.472;8.166;2022-11-10T02:04:00;98734.31;;;11.11;100.00
54876;BME280;40764;48.472;8.166;2022-11-10T02:10:01;98742.03;;;11.04;100.00
54876;BME280;40764;48.472;8.166;2022-11-10T02:16:02;98739.88;;;10.96;100.00
54876;BME280;40764;48.472;8.166;2022-11-10T02:22:02;98752.94;;;11.09;100.00
54876;BME280;40764;48.472;8.166;2022-11-10T02:28:03;98762.84;;;11.00;100.00
54876;BME280;40764;48.472;8.166;2022-11-10T02:34:03;98764.53;;;10.91;100.00
54876;BME280;40764;48.472;8.166;2022-11-10T02:40:04;98765.25;;;11.06;100.00
54876;BME280;40764;48.472;8.166;2022-11-10T02:46:05;98770.97;;;11.10;100.00
54876;BME280;40764;48.472;8.166;2022-11-10T02:52:05;98778.22;;;10.91;100.00
54876;BME280;40764;48.472;8.166;2022-11-10T02:58:05;98767.94;;;10.72;100.00
54876;BME280;40764;48.472;8.166;2022-11-10T03:04:06;98779.69;;;10.73;100.00
54876;BME280;40764;48.472;8.166;2022-11-10T03:10:07;98782.16;;;10.74;100.00
54876;BME280;40764;48.472;8.166;2022-11-10T03:16:07;98784.16;;;10.53;100.00
54876;BME280;40764;48.472;8.166;2022-11-10T03:22:08;98797.84;;;10.53;100.00
54876;BME280;40764;48.472;8.166;2022-11-10T03:28:08;98811.44;;;10.64;100.00
54876;BME280;40764;48.472;8.166;2022-11-10T03:34:09;98817.69;;;10.69;100.00
54876;BME280;40764;48.472;8.166;2022-11-10T03:40:10;98834.25;;;10.93;100.00
54876;BME280;40764;48.472;8.166;2022-11-10T03:46:10;98839.47;;;10.90;100.00
54876;BME280;40764;48.472;8.166;2022-11-10T03:52:10;98853.06;;;10.50;100.00
54876;BME280;40764;48.472;8.166;2022-11-10T03:58:11;98864.22;;;10.59;100.00
54876;BME280;40764;48.472;8.166;2022-11-10T04:04:11;98865.28;;;10.73;100.00
54876;BME280;40764;48.472;8.166;2022-11-10T04:10:34;98878.13;;;10.68;100.00
54876;BME280;40764;48.472;8.166;2022-11-10T04:16:35;98870.53;;;10.60;100.00
54876;BME280;40764;48.472;8.166;2022-11-10T04:22:35;98872.44;;;10.59;100.00
54876;BME280;40764;48.472;8.166;2022-11-10T04:29:02;98882.84;;;10.57;100.00
54876;BME280;40764;48.472;8.166;2022-11-10T04:35:03;98896.59;;;10.21;100.00
54876;BME280;40764;48.472;8.166;2022-11-10T04:41:04;98906.66;;;10.11;100.00
54876;BME280;40764;48.472;8.166;2022-11-10T04:47:04;98921.16;;;10.06;100.00
54876;BME280;40764;48.472;8.166;2022-11-10T04:53:05;98919.81;;;9.88;100.00
54876;BME280;40764;48.472;8.166;2022-11-10T04:59:05;98930.47;;;9.95;100.00
54876;BME280;40764;48.472;8.166;2022-11-10T05:05:05;98939.22;;;9.87;100.00
54876;BME280;40764;48.472;8.166;2022-11-10T05:11:06;98947.38;;;10.07;100.00
54876;BME280;40764;48.472;8.166;2022-11-10T05:17:07;98947.69;;;10.26;100.00
54876;BME280;40764;48.472;8.166;2022-11-10T05:23:07;98964.88;;;10.06;100.00
54876;BME280;40764;48.472;8.166;2022-11-10T05:29:26;98954.50;;;10.13;100.00
54876;BME280;40764;48.472;8.166;2022-11-10T05:35:27;98957.22;;;10.08;100.00
54876;BME280;40764;48.472;8.166;2022-11-10T05:41:27;98974.16;;;10.05;100.00
54876;BME280;40764;48.472;8.166;2022-11-10T05:47:27;98988.06;;;10.09;100.00
54876;BME280;40764;48.472;8.166;2022-11-10T05:53:28;98985.63;;;9.97;100.00
54876;BME280;40764;48.472;8.166;2022-11-10T05:59:28;98986.44;;;10.03;100.00
54876;BME280;40764;48.472;8.166;2022-11-10T06:05:31;99001.19;;;10.12;100.00
54876;BME280;40764;48.472;8.166;2022-11-10T06:11:31;99011.88;;;10.29;100.00
54876;BME280;40764;48.472;8.166;2022-11-10T06:17:32;99031.25;;;10.12;100.00
54876;BME280;40764;48.472;8.166;2022-11-10T06:23:32;99043.56;;;10.14;100.00
54876;BME280;40764;48.472;8.166;2022-11-10T06:29:32;99047.63;;;10.07;100.00
54876;BME280;40764;48.472;8.166;2022-11-10T06:35:33;99060.19;;;9.92;100.00
54876;BME280;40764;48.472;8.166;2022-11-10T06:41:33;99059.63;;;9.90;100.00
54876;BME280;40764;48.472;8.166;2022-11-10T06:47:34;99089.16;;;9.99;100.00
54876;BME280;40764;48.472;8.166;2022-11-10T06:53:34;99112.84;;;9.83;100.00
54876;BME280;40764;48.472;8.166;2022-11-10T06:59:34;99113.66;;;9.73;100.00
54876;BME280;40764;48.472;8.166;2022-11-10T07:05:35;99137.69;;;9.81;100.00
54876;BME280;40764;48.472;8.166;2022-11-10T07:11:35;99148.00;;;9.64;100.00
54876;BME280;40764;48.472;8.166;2022-11-10T07:17:39;99149.69;;;9.70;100.00
54876;BME280;40764;48.472;8.166;2022-11-10T07:23:42;99157.03;;;9.65;100.00
54876;BME280;40764;48.472;8.166;2022-11-10T07:29:42;99164.19;;;9.81;100.00
54876;BME280;40764;48.472;8.166;2022-11-10T07:35:52;99175.16;;;9.91;100.00
54876;BME280;40764;48.472;8.166;2022-11-10T07:41:54;99182.16;;;9.72;100.00
54876;BME280;40764;48.472;8.166;2022-11-10T07:48:02;99207.50;;;9.57;100.00
54876;BME280;40764;48.472;8.166;2022-11-10T07:54:03;99223.47;;;9.85;100.00
54876;BME280;40764;48.472;8.166;2022-11-10T08:00:03;99218.72;;;9.66;100.00
54876;BME280;40764;48.472;8.166;2022-11-10T08:06:04;99219.13;;;9.89;100.00
54876;BME280;40764;48.472;8.166;2022-11-10T08:12:04;99219.75;;;10.12;100.00
54876;BME280;40764;48.472;8.166;2022-11-10T08:18:07;99229.69;;;10.33;100.00
54876;BME280;40764;48.472;8.166;2022-11-10T08:24:12;99238.16;;;10.32;100.00
54876;BME280;40764;48.472;8.166;2022-11-10T08:30:12;99250.75;;;10.33;100.00
54876;BME280;40764;48.472;8.166;2022-11-10T08:36:12;99249.38;;;10.30;100.00
54876;BME280;40764;48.472;8.166;2022-11-10T08:42:13;99253.28;;;10.54;100.00
54876;BME280;40764;48.472;8.166;2022-11-10T08:48:15;99264.78;;;10.67;100.00
54876;BME280;40764;48.472;8.166;2022-11-10T08:54:16;99272.19;;;10.81;100.00
54876;BME280;40764;48.472;8.166;2022-11-10T09:00:17;99264.81;;;10.72;100.00
54876;BME280;40764;48.472;8.166;2022-11-10T09:06:17;99274.16;;;11.06;100.00
54876;BME280;40764;48.472;8.166;2022-11-10T09:12:17;99276.53;;;10.67;100.00
54876;BME280;40764;48.472;8.166;2022-11-10T09:18:18;99290.28;;;11.03;100.00
54876;BME280;40764;48.472;8.166;2022-11-10T09:24:18;99302.88;;;11.14;100.00
54876;BME280;40764;48.472;8.166;2022-11-10T09:30:19;99312.72;;;11.15;100.00
54876;BME280;40764;48.472;8.166;2022-11-10T09:36:19;99305.06;;;11.07;100.00
54876;BME280;40764;48.472;8.166;2022-11-10T09:48:30;99332.72;;;11.41;100.00
54876;BME280;40764;48.472;8.166;2022-11-10T10:08:01;99326.72;;;11.95;99.87
54876;BME280;40764;48.472;8.166;2022-11-10T10:14:33;99329.66;;;12.19;98.07
54876;BME280;40764;48.472;8.166;2022-11-10T10:20:41;99338.94;;;12.33;97.10
54876;BME280;40764;48.472;8.166;2022-11-10T10:26:53;99341.06;;;12.51;97.83
54876;BME280;40764;48.472;8.166;2022-11-10T10:33:02;99328.44;;;12.55;97.47
54876;BME280;40764;48.472;8.166;2022-11-10T10:39:30;99337.44;;;12.66;96.61
54876;BME280;40764;48.472;8.166;2022-11-10T10:45:33;99335.41;;;12.87;93.45
54876;BME280;40764;48.472;8.166;2022-11-10T10:51:37;99319.13;;;13.06;91.85
54876;BME280;40764;48.472;8.166;2022-11-10T10:57:51;99315.03;;;12.98;94.20
54876;BME280;40764;48.472;8.166;2022-11-10T11:03:54;99322.66;;;13.11;93.40
54876;BME280;40764;48.472;8.166;2022-11-10T11:09:54;99311.28;;;13.28;92.83
54876;BME280;40764;48.472;8.166;2022-11-10T11:16:00;99322.56;;;13.26;93.65
54876;BME280;40764;48.472;8.166;2022-11-10T11:28:29;99322.84;;;13.25;93.06
54876;BME280;40764;48.472;8.166;2022-11-10T11:34:55;99326.50;;;13.49;87.32
54876;BME280;40764;48.472;8.166;2022-11-10T12:00:06;99317.44;;;13.49;88.25
54876;BME280;40764;48.472;8.166;2022-11-10T12:06:26;99316.81;;;13.57;84.69
54876;BME280;40764;48.472;8.166;2022-11-10T12:13:20;99318.09;;;13.70;86.95
54876;BME280;40764;48.472;8.166;2022-11-10T12:19:17;99306.81;;;13.71;88.28
54876;BME280;40764;48.472;8.166;2022-11-10T12:31:24;99305.28;;;13.89;84.29
54876;BME280;40764;48.472;8.166;2022-11-10T12:37:44;99300.78;;;13.98;79.05
54876;BME280;40764;48.472;8.166;2022-11-10T12:56:39;99288.81;;;13.84;84.68
54876;BME280;40764;48.472;8.166;2022-11-10T13:02:44;99296.47;;;13.63;88.52
54876;BME280;40764;48.472;8.166;2022-11-10T13:08:45;99303.88;;;13.62;88.24
54876;BME280;40764;48.472;8.166;2022-11-10T13:14:47;99304.59;;;13.73;86.14
54876;BME280;40764;48.472;8.166;2022-11-10T13:20:52;99311.97;;;13.78;85.71
54876;BME280;40764;48.472;8.166;2022-11-10T13:27:01;99309.38;;;13.62;88.06
54876;BME280;40764;48.472;8.166;2022-11-10T13:39:29;99304.91;;;13.38;91.07
54876;BME280;40764;48.472;8.166;2022-11-10T13:45:32;99320.31;;;13.33;90.84
54876;BME280;40764;48.472;8.166;2022-11-10T13:51:43;99316.91;;;13.47;89.86
54876;BME280;40764;48.472;8.166;2022-11-10T13:58:03;99313.34;;;13.46;90.41
54876;BME280;40764;48.472;8.166;2022-11-10T14:04:04;99331.47;;;13.47;90.33
54876;BME280;40764;48.472;8.166;2022-11-10T14:10:11;99338.25;;;13.16;91.27
54876;BME280;40764;48.472;8.166;2022-11-10T14:16:19;99344.31;;;13.13;91.69
54876;BME280;40764;48.472;8.166;2022-11-10T14:22:31;99351.16;;;13.20;90.44
54876;BME280;40764;48.472;8.166;2022-11-10T14:28:34;99350.69;;;12.98;90.69
54876;BME280;40764;48.472;8.166;2022-11-10T14:34:48;99359.47;;;12.46;93.70
54876;BME280;40764;48.472;8.166;2022-11-10T14:40:50;99358.97;;;12.23;93.95
54876;BME280;40764;48.472;8.166;2022-11-10T14:46:52;99363.38;;;12.14;93.76
54876;BME280;40764;48.472;8.166;2022-11-10T14:53:00;99363.13;;;11.55;96.87
54876;BME280;40764;48.472;8.166;2022-11-10T14:59:05;99371.88;;;11.46;98.19
54876;BME280;40764;48.472;8.166;2022-11-10T15:05:12;99374.03;;;11.24;99.07
54876;BME280;40764;48.472;8.166;2022-11-10T15:12:25;99383.88;;;11.10;99.47
54876;BME280;40764;48.472;8.166;2022-11-10T15:17:54;99388.47;;;10.94;100.00
54876;BME280;40764;48.472;8.166;2022-11-10T15:23:56;99402.38;;;10.77;100.00
54876;BME280;40764;48.472;8.166;2022-11-10T15:30:00;99411.13;;;10.74;100.00
54876;BME280;40764;48.472;8.166;2022-11-10T15:42:23;99416.72;;;10.42;100.00
54876;BME280;40764;48.472;8.166;2022-11-10T15:48:24;99424.31;;;10.40;100.00
54876;BME280;40764;48.472;8.166;2022-11-10T15:54:28;99420.53;;;10.09;100.00
54876;BME280;40764;48.472;8.166;2022-11-10T16:00:29;99430.50;;;9.88;100.00
54876;BME280;40764;48.472;8.166;2022-11-10T16:06:29;99427.16;;;9.81;100.00
54876;BME280;40764;48.472;8.166;2022-11-10T16:12:30;99439.88;;;9.66;100.00
54876;BME280;40764;48.472;8.166;2022-11-10T16:18:31;99451.72;;;9.49;100.00
54876;BME280;40764;48.472;8.166;2022-11-10T16:24:31;99461.19;;;9.42;100.00
54876;BME280;40764;48.472;8.166;2022-11-10T16:30:32;99461.66;;;9.34;100.00
54876;BME280;40764;48.472;8.166;2022-11-10T16:36:33;99477.47;;;9.31;100.00
54876;BME280;40764;48.472;8.166;2022-11-10T16:42:34;99491.88;;;9.27;100.00
54876;BME280;40764;48.472;8.166;2022-11-10T16:48:34;99489.03;;;9.17;100.00
54876;BME280;40764;48.472;8.166;2022-11-10T16:54:35;99494.56;;;9.00;100.00
54876;BME280;40764;48.472;8.166;2022-11-10T17:00:37;99490.59;;;8.91;100.00
54876;BME280;40764;48.472;8.166;2022-11-10T17:06:38;99495.56;;;8.55;100.00
54876;BME280;40764;48.472;8.166;2022-11-10T17:12:39;99497.97;;;8.52;100.00
54876;BME280;40764;48.472;8.166;2022-11-10T17:18:39;99496.16;;;8.57;100.00
54876;BME280;40764;48.472;8.166;2022-11-10T17:24:40;99504.50;;;8.51;100.00
54876;BME280;40764;48.472;8.166;2022-11-10T17:30:40;99518.91;;;8.46;100.00
54876;BME280;40764;48.472;8.166;2022-11-10T17:36:41;99513.75;;;8.33;100.00
54876;BME280;40764;48.472;8.166;2022-11-10T17:42:41;99525.63;;;8.27;100.00
54876;BME280;40764;48.472;8.166;2022-11-10T17:48:42;99529.34;;;8.21;100.00
54876;BME280;40764;48.472;8.166;2022-11-10T17:54:43;99522.31;;;8.08;100.00
54876;BME280;40764;48.472;8.166;2022-11-10T18:00:45;99513.56;;;8.06;100.00
54876;BME280;40764;48.472;8.166;2022-11-10T18:06:45;99523.22;;;7.97;100.00
54876;BME280;40764;48.472;8.166;2022-11-10T18:12:45;99537.59;;;7.92;100.00
54876;BME280;40764;48.472;8.166;2022-11-10T18:18:46;99551.84;;;7.83;100.00
54876;BME280;40764;48.472;8.166;2022-11-10T18:24:46;99556.81;;;7.86;100.00
54876;BME280;40764;48.472;8.166;2022-11-10T18:30:46;99557.19;;;7.77;100.00
54876;BME280;40764;48.472;8.166;2022-11-10T18:36:47;99554.09;;;7.86;100.00
54876;BME280;40764;48.472;8.166;2022-11-10T18:42:47;99553.25;;;7.85;100.00
54876;BME280;40764;48.472;8.166;2022-11-10T18:48:48;99556.72;;;7.81;100.00
54876;BME280;40764;48.472;8.166;2022-11-10T18:54:48;99553.31;;;7.73;100.00
54876;BME280;40764;48.472;8.166;2022-11-10T19:00:48;99555.44;;;7.43;100.00
54876;BME280;40764;48.472;8.166;2022-11-10T19:06:49;99548.19;;;7.49;100.00
54876;BME280;40764;48.472;8.166;2022-11-10T19:12:49;99555.53;;;7.48;100.00
54876;BME280;40764;48.472;8.166;2022-11-10T19:18:49;99568.91;;;7.50;100.00
54876;BME280;40764;48.472;8.166;2022-11-10T19:24:50;99566.31;;;7.55;100.00
54876;BME280;40764;48.472;8.166;2022-11-10T19:30:50;99564.44;;;7.43;100.00
54876;BME280;40764;48.472;8.166;2022-11-10T19:36:50;99569.09;;;7.31;100.00
54876;BME280;40764;48.472;8.166;2022-11-10T19:42:52;99574.06;;;7.23;100.00
54876;BME280;40764;48.472;8.166;2022-11-10T19:48:53;99573.13;;;7.17;100.00
54876;BME280;40764;48.472;8.166;2022-11-10T19:54:54;99562.66;;;6.97;100.00
54876;BME280;40764;48.472;8.166;2022-11-10T20:00:54;99561.59;;;6.98;100.00
54876;BME280;40764;48.472;8.166;2022-11-10T20:06:55;99560.88;;;6.91;100.00
54876;BME280;40764;48.472;8.166;2022-11-10T20:13:14;99569.41;;;6.83;100.00
54876;BME280;40764;48.472;8.166;2022-11-10T20:19:14;99577.81;;;6.70;100.00
54876;BME280;40764;48.472;8.166;2022-11-10T20:25:15;99581.81;;;6.79;100.00
54876;BME280;40764;48.472;8.166;2022-11-10T20:31:23;99584.19;;;6.75;100.00
54876;BME280;40764;48.472;8.166;2022-11-10T20:37:23;99578.75;;;6.75;100.00
54876;BME280;40764;48.472;8.166;2022-11-10T20:43:24;99586.22;;;6.68;100.00
54876;BME280;40764;48.472;8.166;2022-11-10T20:49:24;99603.06;;;6.59;100.00
54876;BME280;40764;48.472;8.166;2022-11-10T20:55:24;99610.63;;;6.45;100.00
54876;BME280;40764;48.472;8.166;2022-11-10T21:01:25;99606.16;;;6.50;100.00
54876;BME280;40764;48.472;8.166;2022-11-10T21:07:25;99622.56;;;6.56;100.00
54876;BME280;40764;48.472;8.166;2022-11-10T21:13:27;99610.53;;;6.40;100.00
54876;BME280;40764;48.472;8.166;2022-11-10T21:19:31;99619.56;;;6.34;100.00
54876;BME280;40764;48.472;8.166;2022-11-10T21:25:32;99626.53;;;6.30;100.00
54876;BME280;40764;48.472;8.166;2022-11-10T21:31:32;99627.06;;;6.38;100.00
54876;BME280;40764;48.472;8.166;2022-11-10T21:37:32;99638.03;;;6.43;100.00
54876;BME280;40764;48.472;8.166;2022-11-10T21:43:33;99611.34;;;6.40;100.00
54876;BME280;40764;48.472;8.166;2022-11-10T21:49:33;99595.00;;;6.29;100.00
54876;BME280;40764;48.472;8.166;2022-11-10T21:55:33;99595.94;;;6.11;100.00
54876;BME280;40764;48.472;8.166;2022-11-10T22:01:34;99581.63;;;6.04;100.00
54876;BME280;40764;48.472;8.166;2022-11-10T22:07:36;99581.81;;;5.90;100.00
54876;BME280;40764;48.472;8.166;2022-11-10T22:13:37;99577.47;;;6.01;100.00
54876;BME280;40764;48.472;8.166;2022-11-10T22:19:56;99579.06;;;6.09;100.00
54876;BME280;40764;48.472;8.166;2022-11-10T22:25:56;99567.25;;;6.15;100.00
54876;BME280;40764;48.472;8.166;2022-11-10T22:31:57;99577.84;;;6.05;100.00
54876;BME280;40764;48.472;8.166;2022-11-10T22:38:02;99579.13;;;5.90;100.00
54876;BME280;40764;48.472;8.166;2022-11-10T22:44:03;99587.25;;;5.90;100.00
54876;BME280;40764;48.472;8.166;2022-11-10T22:50:04;99583.03;;;5.76;100.00
54876;BME280;40764;48.472;8.166;2022-11-10T22:56:05;99575.69;;;5.65;100.00
54876;BME280;40764;48.472;8.166;2022-11-10T23:02:05;99575.78;;;5.58;100.00
54876;BME280;40764;48.472;8.166;2022-11-10T23:08:05;99583.38;;;5.68;100.00
54876;BME280;40764;48.472;8.166;2022-11-10T23:14:08;99589.97;;;5.90;100.00
54876;BME280;40764;48.472;8.166;2022-11-10T23:20:09;99589.53;;;5.75;100.00
54876;BME280;40764;48.472;8.166;2022-11-10T23:26:19;99591.19;;;5.76;100.00
54876;BME280;40764;48.472;8.166;2022-11-10T23:32:19;99588.97;;;5.55;100.00
54876;BME280;40764;48.472;8.166;2022-11-10T23:38:20;99590.19;;;5.59;100.00
54876;BME280;40764;48.472;8.166;2022-11-10T23:44:20;99579.56;;;5.57;100.00
54876;BME280;40764;48.472;8.166;2022-11-10T23:50:20;99580.63;;;5.56;100.00
54876;BME280;40764;48.472;8.166;2022-11-10T23:56:21;99586.41;;;5.60;100.00
